createdAt,value
2017-06-25T00:01:47.016Z,53.00
2017-06-25T00:04:15.099Z,53.00
2017-06-25T00:06:43.179Z,53.10
2017-06-25T00:09:11.269Z,53.00
2017-06-25T00:11:39.356Z,53.20
2017-06-25T00:14:07.450Z,53.10
2017-06-25T00:16:35.529Z,53.40
2017-06-25T00:19:03.636Z,53.30
2017-06-25T00:21:31.715Z,53.40
2017-06-25T00:23:59.799Z,53.20
2017-06-25T00:26:27.895Z,53.40
2017-06-25T00:28:55.969Z,53.90
2017-06-25T00:31:24.051Z,54.40
2017-06-25T00:33:52.137Z,54.00
2017-06-25T00:36:20.214Z,53.80
2017-06-25T00:38:48.304Z,54.90
2017-06-25T00:41:16.413Z,55.80
2017-06-25T00:43:44.492Z,55.60
2017-06-25T00:46:12.567Z,56.70
2017-06-25T00:48:40.650Z,57.00
2017-06-25T00:51:08.719Z,56.80
2017-06-25T00:53:42.347Z,56.80
2017-06-25T00:56:10.419Z,56.90
2017-06-25T00:58:38.502Z,57.00
2017-06-25T01:01:06.590Z,56.80
2017-06-25T01:03:34.679Z,57.50
2017-06-25T01:06:02.770Z,57.80
2017-06-25T01:08:30.872Z,57.70
2017-06-25T01:10:58.951Z,57.10
2017-06-25T01:13:27.019Z,56.40
2017-06-25T01:15:55.111Z,55.90
2017-06-25T01:18:23.184Z,56.70
2017-06-25T01:20:51.267Z,56.50
2017-06-25T01:23:19.356Z,56.20
2017-06-25T01:25:47.447Z,56.60
2017-06-25T01:28:15.531Z,57.10
2017-06-25T01:30:43.638Z,56.80
2017-06-25T01:33:11.708Z,57.00
2017-06-25T01:35:39.800Z,56.80
2017-06-25T01:38:07.880Z,57.30
2017-06-25T01:40:35.968Z,57.40
2017-06-25T01:43:04.063Z,57.70
2017-06-25T01:45:32.149Z,57.60
2017-06-25T01:48:00.230Z,57.30
2017-06-25T01:50:28.321Z,57.30
2017-06-25T01:52:56.415Z,57.20
2017-06-25T01:55:24.495Z,57.60
2017-06-25T01:57:52.571Z,57.40
2017-06-25T02:00:20.664Z,57.00
2017-06-25T02:02:48.746Z,56.80
2017-06-25T02:05:16.822Z,56.70
2017-06-25T02:07:44.900Z,56.70
2017-06-25T02:10:12.990Z,55.90
2017-06-25T02:12:41.070Z,55.70
2017-06-25T02:15:09.151Z,56.00
2017-06-25T02:17:37.238Z,56.10
2017-06-25T02:20:05.318Z,56.00
2017-06-25T02:22:33.401Z,56.00
2017-06-25T02:25:01.478Z,56.20
2017-06-25T02:27:29.580Z,56.00
2017-06-25T02:29:57.871Z,56.20
2017-06-25T02:32:25.947Z,56.50
2017-06-25T02:34:54.026Z,56.60
2017-06-25T02:37:22.119Z,56.50
2017-06-25T02:39:50.200Z,56.20
2017-06-25T02:42:18.274Z,56.50
2017-06-25T02:44:46.373Z,56.40
2017-06-25T02:47:14.450Z,56.50
2017-06-25T02:49:42.537Z,56.60
2017-06-25T02:52:10.619Z,56.40
2017-06-25T02:54:38.704Z,55.90
2017-06-25T02:57:06.803Z,56.00
2017-06-25T02:59:34.899Z,56.10
2017-06-25T03:02:02.966Z,56.00
2017-06-25T03:04:31.044Z,55.50
2017-06-25T03:06:59.135Z,55.30
2017-06-25T03:09:38.923Z,54.30
2017-06-25T03:12:07.004Z,54.70
2017-06-25T03:14:35.094Z,54.20
2017-06-25T03:17:03.175Z,53.90
2017-06-25T03:19:31.255Z,53.70
2017-06-25T03:21:59.360Z,53.40
2017-06-25T03:24:27.447Z,53.20
2017-06-25T03:26:55.529Z,52.70
2017-06-25T03:29:23.612Z,53.40
2017-06-25T03:31:51.693Z,53.30
2017-06-25T03:34:19.779Z,53.20
2017-06-25T03:36:48.639Z,54.30
2017-06-25T03:39:16.725Z,54.30
2017-06-25T03:41:44.807Z,54.00
2017-06-25T03:44:12.882Z,53.70
2017-06-25T03:46:40.958Z,54.00
2017-06-25T03:49:09.063Z,54.50
2017-06-25T03:51:37.135Z,54.50
2017-06-25T03:54:05.216Z,54.20
2017-06-25T03:56:33.301Z,54.80
2017-06-25T03:59:01.383Z,54.40
2017-06-25T04:01:29.473Z,53.90
2017-06-25T04:03:57.544Z,53.70
2017-06-25T04:06:25.635Z,53.50
2017-06-25T04:08:53.708Z,53.40
2017-06-25T04:11:21.807Z,52.90
2017-06-25T04:13:49.894Z,52.50
2017-06-25T04:16:17.975Z,51.90
2017-06-25T04:18:46.056Z,52.00
2017-06-25T04:21:14.133Z,52.20
2017-06-25T04:23:42.207Z,52.10
2017-06-25T04:26:10.279Z,52.20
2017-06-25T04:28:38.368Z,52.00
2017-06-25T04:31:06.459Z,51.80
2017-06-25T04:33:34.537Z,51.60
2017-06-25T04:36:02.626Z,51.70
2017-06-25T04:38:30.739Z,51.10
2017-06-25T04:40:58.813Z,51.00
2017-06-25T04:43:26.879Z,50.90
2017-06-25T04:45:54.959Z,51.10
2017-06-25T04:48:23.031Z,51.20
2017-06-25T04:50:51.106Z,50.80
2017-06-25T04:53:19.193Z,51.20
2017-06-25T04:55:47.276Z,51.30
2017-06-25T04:58:15.348Z,51.20
2017-06-25T05:00:43.443Z,50.90
2017-06-25T05:03:11.534Z,51.10
2017-06-25T05:05:39.605Z,51.10
2017-06-25T05:08:07.691Z,51.30
2017-06-25T05:10:35.766Z,50.70
2017-06-25T05:13:03.858Z,51.10
2017-06-25T05:15:31.945Z,51.20
2017-06-25T05:18:00.033Z,51.60
2017-06-25T05:20:28.109Z,51.10
2017-06-25T05:22:56.205Z,51.00
2017-06-25T05:25:24.276Z,50.90
2017-06-25T05:27:52.353Z,50.80
2017-06-25T05:30:20.443Z,50.90
2017-06-25T05:32:48.527Z,50.80
2017-06-25T05:35:16.611Z,50.20
2017-06-25T05:37:44.679Z,50.60
2017-06-25T05:40:12.779Z,50.20
2017-06-25T05:42:40.863Z,50.70
2017-06-25T05:45:08.961Z,51.10
2017-06-25T05:47:37.037Z,51.10
2017-06-25T05:50:05.132Z,51.10
2017-06-25T05:52:33.212Z,50.90
2017-06-25T05:55:01.293Z,50.60
2017-06-25T05:57:29.375Z,50.60
2017-06-25T05:59:57.666Z,51.00
2017-06-25T06:02:25.755Z,51.20
2017-06-25T06:04:53.836Z,50.30
2017-06-25T06:07:21.918Z,49.80
2017-06-25T06:09:49.999Z,49.80
2017-06-25T06:12:18.092Z,50.60
2017-06-25T06:14:46.169Z,50.30
2017-06-25T06:17:14.263Z,50.20
2017-06-25T06:19:42.342Z,50.50
2017-06-25T06:22:10.425Z,50.40
2017-06-25T06:24:38.503Z,50.30
2017-06-25T06:27:06.591Z,50.40
2017-06-25T06:29:34.673Z,50.40
2017-06-25T06:32:02.755Z,50.20
2017-06-25T06:34:30.841Z,50.20
2017-06-25T06:36:58.926Z,50.60
2017-06-25T06:39:27.021Z,50.20
2017-06-25T06:41:55.099Z,51.00
2017-06-25T06:44:23.181Z,50.40
2017-06-25T06:46:51.265Z,49.90
2017-06-25T06:49:19.335Z,50.30
2017-06-25T06:51:47.420Z,49.90
2017-06-25T06:54:15.507Z,50.10
2017-06-25T06:56:43.611Z,50.40
2017-06-25T06:59:11.704Z,50.10
2017-06-25T07:01:39.783Z,49.30
2017-06-25T07:04:07.859Z,49.10
2017-06-25T07:06:35.944Z,50.30
2017-06-25T07:09:04.034Z,49.40
2017-06-25T07:11:32.106Z,49.80
2017-06-25T07:14:00.184Z,49.60
2017-06-25T07:16:28.264Z,49.90
2017-06-25T07:18:56.347Z,49.00
2017-06-25T07:21:24.429Z,48.30
2017-06-25T07:23:52.519Z,46.90
2017-06-25T07:26:20.602Z,46.20
2017-06-25T07:28:48.701Z,47.10
2017-06-25T07:31:16.779Z,47.60
2017-06-25T07:33:44.866Z,46.80
2017-06-25T07:36:12.979Z,45.90
2017-06-25T07:38:41.048Z,47.10
2017-06-25T07:41:09.127Z,47.90
2017-06-25T07:43:37.215Z,46.40
2017-06-25T07:46:05.295Z,46.60
2017-06-25T07:48:33.384Z,47.40
2017-06-25T07:51:01.484Z,46.80
2017-06-25T07:53:29.574Z,47.00
2017-06-25T07:55:57.658Z,47.70
2017-06-25T07:58:25.754Z,47.50
2017-06-25T08:00:53.830Z,46.70
2017-06-25T08:03:21.910Z,46.10
2017-06-25T08:05:49.992Z,45.90
2017-06-25T08:08:18.072Z,45.50
2017-06-25T08:10:46.147Z,43.90
2017-06-25T08:13:14.253Z,45.70
2017-06-25T08:15:42.324Z,44.90
2017-06-25T08:18:10.404Z,44.70
2017-06-25T08:20:38.487Z,42.80
2017-06-25T08:23:06.567Z,43.40
2017-06-25T08:25:34.656Z,43.70
2017-06-25T08:28:02.736Z,43.00
2017-06-25T08:30:30.831Z,43.30
2017-06-25T08:32:58.910Z,43.70
2017-06-25T08:35:27.020Z,43.80
2017-06-25T08:37:55.101Z,41.40
2017-06-25T08:40:23.181Z,42.00
2017-06-25T08:42:51.275Z,42.90
2017-06-25T08:45:19.348Z,43.20
2017-06-25T08:47:47.423Z,41.90
2017-06-25T08:50:16.175Z,42.20
2017-06-25T08:52:44.264Z,41.50
2017-06-25T08:55:12.337Z,40.40
2017-06-25T08:57:40.410Z,41.20
2017-06-25T09:00:08.503Z,41.20
2017-06-25T09:02:36.572Z,38.20
2017-06-25T09:05:04.652Z,37.40
2017-06-25T09:07:32.729Z,37.20
2017-06-25T09:10:00.827Z,36.80
2017-06-25T09:12:28.901Z,35.20
2017-06-25T09:14:56.981Z,35.20
2017-06-25T09:17:25.081Z,35.90
2017-06-25T09:19:53.152Z,37.20
2017-06-25T09:22:21.248Z,35.60
2017-06-25T09:24:49.323Z,36.60
2017-06-25T09:27:17.417Z,36.70
2017-06-25T09:29:45.495Z,33.70
2017-06-25T09:32:13.600Z,34.40
2017-06-25T09:34:41.676Z,35.90
2017-06-25T09:37:09.752Z,35.90
2017-06-25T09:39:37.848Z,36.50
2017-06-25T09:42:05.933Z,37.70
2017-06-25T09:44:34.026Z,39.30
2017-06-25T09:47:02.094Z,39.70
2017-06-25T09:49:30.181Z,38.60
2017-06-25T09:51:58.268Z,38.50
2017-06-25T09:54:26.363Z,38.30
2017-06-25T09:56:54.435Z,38.20
2017-06-25T09:59:22.521Z,37.60
2017-06-25T10:01:50.609Z,37.00
2017-06-25T10:04:18.686Z,38.80
2017-06-25T10:06:46.775Z,38.40
2017-06-25T10:09:14.847Z,38.70
2017-06-25T10:11:42.936Z,38.60
2017-06-25T10:14:11.033Z,38.30
2017-06-25T10:16:40.018Z,38.30
2017-06-25T10:19:13.635Z,39.40
2017-06-25T10:21:41.734Z,37.20
2017-06-25T10:24:09.806Z,35.50
2017-06-25T10:26:37.896Z,35.50
2017-06-25T10:29:05.975Z,36.70
2017-06-25T10:31:34.054Z,36.60
2017-06-25T10:34:02.148Z,37.00
2017-06-25T10:36:30.219Z,38.40
2017-06-25T10:38:58.306Z,37.90
2017-06-25T10:41:26.386Z,35.30
2017-06-25T10:43:54.486Z,33.40
2017-06-25T10:46:22.568Z,32.90
2017-06-25T10:48:50.648Z,30.20
2017-06-25T10:51:18.733Z,30.00
2017-06-25T10:53:46.806Z,30.00
2017-06-25T10:56:14.896Z,32.40
2017-06-25T10:58:42.966Z,32.00
2017-06-25T11:01:11.057Z,31.30
2017-06-25T11:03:39.139Z,31.00
2017-06-25T11:06:07.391Z,29.90
2017-06-25T11:08:35.483Z,32.00
2017-06-25T11:11:03.550Z,31.10
2017-06-25T11:13:31.651Z,32.40
2017-06-25T11:15:59.722Z,32.60
2017-06-25T11:18:27.806Z,31.50
2017-06-25T11:20:55.897Z,31.40
2017-06-25T11:23:23.993Z,33.90
2017-06-25T11:25:52.080Z,34.70
2017-06-25T11:28:20.410Z,34.70
2017-06-25T11:30:48.484Z,34.50
2017-06-25T11:33:16.581Z,35.50
2017-06-25T11:35:44.666Z,35.20
2017-06-25T11:38:12.739Z,34.00
2017-06-25T11:40:40.819Z,33.80
2017-06-25T11:43:08.905Z,30.80
2017-06-25T11:45:37.015Z,29.50
2017-06-25T11:48:05.075Z,30.70
2017-06-25T11:50:33.167Z,31.70
2017-06-25T11:53:01.242Z,33.40
2017-06-25T11:55:29.320Z,33.70
2017-06-25T11:57:57.407Z,32.00
2017-06-25T12:00:25.483Z,31.70
2017-06-25T12:02:53.572Z,30.80
2017-06-25T12:05:21.651Z,31.60
2017-06-25T12:07:49.740Z,32.50
2017-06-25T12:10:17.809Z,31.50
2017-06-25T12:12:45.912Z,30.40
2017-06-25T12:15:13.988Z,30.00
2017-06-25T12:17:42.064Z,30.00
2017-06-25T12:20:10.155Z,29.20
2017-06-25T12:22:38.240Z,29.50
2017-06-25T12:25:06.328Z,30.50
2017-06-25T12:27:34.403Z,29.50
2017-06-25T12:30:02.483Z,30.10
2017-06-25T12:32:30.567Z,30.70
2017-06-25T12:34:58.671Z,29.30
2017-06-25T12:37:26.751Z,28.00
2017-06-25T12:39:54.835Z,28.70
2017-06-25T12:42:22.931Z,28.30
2017-06-25T12:44:51.002Z,29.40
2017-06-25T12:47:19.075Z,30.80
2017-06-25T12:49:47.155Z,30.90
2017-06-25T12:52:15.248Z,30.50
2017-06-25T12:54:43.331Z,29.10
2017-06-25T12:57:11.431Z,28.30
2017-06-25T12:59:39.508Z,28.30
2017-06-25T13:02:07.593Z,28.50
2017-06-25T13:04:35.677Z,28.90
2017-06-25T13:07:03.748Z,30.00
2017-06-25T13:09:31.832Z,28.50
2017-06-25T13:11:59.940Z,29.60
2017-06-25T13:14:28.020Z,30.20
2017-06-25T13:16:56.106Z,31.00
2017-06-25T13:19:24.399Z,32.00
2017-06-25T13:21:52.488Z,33.00
2017-06-25T13:24:20.573Z,32.50
2017-06-25T13:26:48.655Z,33.30
2017-06-25T13:29:16.739Z,34.00
2017-06-25T13:31:44.821Z,34.00
2017-06-25T13:34:12.888Z,34.20
2017-06-25T13:36:40.986Z,34.60
2017-06-25T13:39:09.059Z,35.70
2017-06-25T13:41:37.140Z,35.10
2017-06-25T13:44:05.218Z,34.10
2017-06-25T13:46:33.304Z,34.10
2017-06-25T13:49:01.387Z,33.40
2017-06-25T13:51:29.471Z,32.80
2017-06-25T13:53:57.583Z,32.70
2017-06-25T13:56:25.658Z,34.30
2017-06-25T13:58:53.750Z,35.60
2017-06-25T14:01:21.835Z,34.80
2017-06-25T14:03:49.907Z,34.80
2017-06-25T14:06:17.986Z,33.60
2017-06-25T14:08:46.067Z,32.80
2017-06-25T14:11:14.196Z,32.20
2017-06-25T14:13:42.280Z,31.80
2017-06-25T14:16:10.535Z,32.60
2017-06-25T14:18:38.881Z,33.00
2017-06-25T14:21:07.096Z,32.00
2017-06-25T14:23:35.185Z,33.50
2017-06-25T14:26:03.268Z,34.20
2017-06-25T14:28:31.362Z,33.90
2017-06-25T14:30:59.453Z,34.20
2017-06-25T14:33:27.543Z,33.10
2017-06-25T14:35:55.628Z,33.70
2017-06-25T14:38:23.715Z,33.70
2017-06-25T14:40:51.790Z,33.60
2017-06-25T14:43:19.868Z,34.40
2017-06-25T14:45:47.957Z,34.00
2017-06-25T14:48:16.027Z,34.10
2017-06-25T14:50:44.111Z,33.20
2017-06-25T14:53:12.188Z,34.40
2017-06-25T14:55:40.275Z,34.10
2017-06-25T14:58:08.360Z,34.60
2017-06-25T15:00:36.439Z,33.80
2017-06-25T15:03:04.521Z,33.60
2017-06-25T15:05:32.603Z,33.30
2017-06-25T15:08:00.690Z,33.50
2017-06-25T15:10:28.769Z,34.30
2017-06-25T15:12:56.852Z,35.40
2017-06-25T15:15:24.941Z,34.90
2017-06-25T15:17:53.022Z,35.10
2017-06-25T15:20:21.099Z,35.70
2017-06-25T15:22:49.178Z,34.70
2017-06-25T15:25:17.268Z,35.80
2017-06-25T15:27:45.349Z,35.30
2017-06-25T15:30:13.436Z,34.50
2017-06-25T15:32:41.510Z,35.20
2017-06-25T15:35:09.596Z,35.70
2017-06-25T15:37:37.672Z,35.70
2017-06-25T15:40:05.755Z,36.00
2017-06-25T15:42:33.839Z,36.50
2017-06-25T15:45:01.915Z,36.50
2017-06-25T15:47:29.996Z,36.70
2017-06-25T15:49:58.287Z,36.70
2017-06-25T15:52:26.380Z,37.10
2017-06-25T15:54:54.447Z,37.90
2017-06-25T15:57:22.547Z,38.00
2017-06-25T15:59:50.631Z,38.20
2017-06-25T16:02:18.715Z,38.50
2017-06-25T16:04:46.807Z,38.90
2017-06-25T16:07:14.904Z,39.20
2017-06-25T16:09:42.992Z,39.20
2017-06-25T16:12:11.079Z,39.40
2017-06-25T16:14:39.172Z,39.30
2017-06-25T16:17:07.259Z,39.70
2017-06-25T16:19:35.351Z,38.90
2017-06-25T16:22:03.426Z,39.40
2017-06-25T16:24:31.508Z,38.50
2017-06-25T16:26:59.587Z,38.20
2017-06-25T16:29:27.681Z,38.50
2017-06-25T16:31:55.763Z,38.00
2017-06-25T16:34:23.831Z,38.60
2017-06-25T16:36:51.924Z,38.70
2017-06-25T16:39:19.991Z,38.80
2017-06-25T16:41:48.074Z,38.90
2017-06-25T16:44:16.163Z,39.20
2017-06-25T16:46:44.229Z,39.20
2017-06-25T16:49:12.313Z,39.70
2017-06-25T16:51:40.383Z,40.10
2017-06-25T16:54:08.490Z,39.40
2017-06-25T16:56:36.720Z,39.00
2017-06-25T16:59:04.875Z,39.20
2017-06-25T17:01:32.958Z,39.60
2017-06-25T17:04:01.152Z,39.60
2017-06-25T17:06:29.415Z,39.50
2017-06-25T17:09:20.398Z,39.10
2017-06-25T17:11:48.689Z,39.00
2017-06-25T17:14:16.755Z,39.60
2017-06-25T17:16:44.834Z,40.10
2017-06-25T17:19:12.918Z,40.50
2017-06-25T17:21:40.994Z,40.90
2017-06-25T17:24:09.092Z,41.30
2017-06-25T17:26:37.176Z,41.10
2017-06-25T17:29:05.254Z,41.70
2017-06-25T17:31:33.334Z,41.80
2017-06-25T17:34:01.420Z,42.60
2017-06-25T17:36:29.499Z,42.20
2017-06-25T17:38:57.599Z,42.60
2017-06-25T17:41:25.670Z,42.80
2017-06-25T17:43:53.759Z,43.00
2017-06-25T17:46:21.851Z,42.90
2017-06-25T17:48:49.925Z,43.10
2017-06-25T17:51:18.015Z,43.50
2017-06-25T17:53:46.091Z,43.60
2017-06-25T17:56:14.172Z,43.10
2017-06-25T17:58:42.242Z,43.60
2017-06-25T18:01:10.335Z,44.00
2017-06-25T18:03:38.406Z,43.80
2017-06-25T18:06:06.491Z,44.20
2017-06-25T18:08:34.570Z,44.30
2017-06-25T18:11:02.647Z,44.50
2017-06-25T18:13:30.727Z,44.00
2017-06-25T18:15:58.807Z,43.60
2017-06-25T18:18:26.891Z,43.40
2017-06-25T18:20:54.974Z,43.60
2017-06-25T18:23:23.059Z,44.60
2017-06-25T18:25:51.131Z,45.20
2017-06-25T18:28:19.237Z,45.20
2017-06-25T18:30:47.306Z,44.70
2017-06-25T18:33:15.383Z,44.40
2017-06-25T18:35:43.469Z,45.00
2017-06-25T18:38:11.547Z,45.10
2017-06-25T18:40:39.631Z,45.30
2017-06-25T18:43:07.920Z,45.20
2017-06-25T18:45:36.006Z,45.70
2017-06-25T18:48:04.087Z,45.80
2017-06-25T18:50:32.173Z,46.20
2017-06-25T18:53:00.244Z,46.30
2017-06-25T18:55:28.331Z,46.40
2017-06-25T18:57:56.403Z,46.40
2017-06-25T19:00:24.480Z,46.60
2017-06-25T19:02:52.567Z,47.10
2017-06-25T19:05:20.647Z,47.00
2017-06-25T19:07:48.713Z,47.00
2017-06-25T19:10:16.803Z,47.00
2017-06-25T19:12:44.878Z,47.20
2017-06-25T19:15:12.950Z,47.40
2017-06-25T19:17:41.047Z,47.40
2017-06-25T19:20:09.131Z,47.70
2017-06-25T19:22:37.207Z,47.70
2017-06-25T19:25:05.284Z,47.70
2017-06-25T19:27:33.359Z,48.00
2017-06-25T19:30:01.439Z,48.20
2017-06-25T19:32:29.515Z,48.10
2017-06-25T19:34:57.591Z,48.30
2017-06-25T19:37:25.681Z,48.30
2017-06-25T19:39:53.764Z,48.50
2017-06-25T19:42:21.842Z,48.80
2017-06-25T19:44:49.935Z,49.10
2017-06-25T19:47:18.024Z,49.20
2017-06-25T19:49:46.106Z,49.10
2017-06-25T19:52:14.186Z,49.50
2017-06-25T19:54:42.270Z,49.20
2017-06-25T19:57:10.348Z,49.20
2017-06-25T19:59:38.439Z,49.30
2017-06-25T20:02:06.524Z,49.50
2017-06-25T20:04:34.597Z,49.60
2017-06-25T20:07:02.675Z,49.70
2017-06-25T20:09:30.750Z,49.90
2017-06-25T20:11:58.836Z,49.80
2017-06-25T20:14:26.903Z,50.10
2017-06-25T20:16:54.993Z,50.10
2017-06-25T20:19:23.064Z,50.20
2017-06-25T20:21:51.145Z,50.10
2017-06-25T20:24:19.215Z,49.80
2017-06-25T20:26:47.299Z,50.20
2017-06-25T20:29:15.391Z,50.10
2017-06-25T20:31:43.472Z,50.20
2017-06-25T20:34:11.574Z,50.40
2017-06-25T20:36:39.691Z,50.60
2017-06-25T20:39:07.786Z,50.50
2017-06-25T20:41:35.872Z,50.40
2017-06-25T20:44:03.950Z,50.50
2017-06-25T20:46:32.027Z,50.80
2017-06-25T20:49:00.112Z,50.80
2017-06-25T20:51:28.195Z,50.90
2017-06-25T20:53:56.279Z,51.10
2017-06-25T20:56:24.359Z,51.20
2017-06-25T20:58:52.430Z,51.20
2017-06-25T21:01:20.507Z,51.60
2017-06-25T21:03:48.590Z,51.80
2017-06-25T21:06:16.679Z,51.90
2017-06-25T21:08:44.759Z,51.80
2017-06-25T21:11:12.860Z,51.70
2017-06-25T21:13:41.724Z,52.00
2017-06-25T21:16:09.811Z,52.10
2017-06-25T21:18:37.901Z,51.90
2017-06-25T21:21:05.976Z,52.00
2017-06-25T21:23:34.053Z,52.00
2017-06-25T21:26:02.133Z,52.10
2017-06-25T21:28:30.219Z,52.40
2017-06-25T21:30:58.314Z,52.60
2017-06-25T21:33:26.401Z,52.60
2017-06-25T21:35:54.472Z,52.70
2017-06-25T21:38:22.557Z,52.60
2017-06-25T21:40:50.635Z,52.70
2017-06-25T21:43:18.735Z,52.70
2017-06-25T21:45:46.819Z,52.80
2017-06-25T21:48:15.113Z,52.80
2017-06-25T21:50:43.189Z,53.10
2017-06-25T21:53:11.264Z,52.80
2017-06-25T21:55:39.351Z,52.90
2017-06-25T21:58:07.440Z,52.70
2017-06-25T22:00:35.519Z,52.90
2017-06-25T22:03:03.591Z,53.00
2017-06-25T22:05:31.695Z,52.80
2017-06-25T22:08:00.682Z,53.20
2017-06-25T22:10:28.778Z,52.90
2017-06-25T22:12:56.852Z,53.40
2017-06-25T22:15:24.933Z,53.30
2017-06-25T22:17:53.028Z,53.30
2017-06-25T22:20:21.112Z,53.30
2017-06-25T22:22:49.194Z,53.40
2017-06-25T22:25:17.275Z,53.40
2017-06-25T22:27:45.363Z,53.70
2017-06-25T22:30:13.435Z,53.60
2017-06-25T22:32:41.518Z,53.40
2017-06-25T22:35:09.598Z,53.60
2017-06-25T22:37:37.689Z,53.60
2017-06-25T22:40:05.766Z,53.70
2017-06-25T22:42:33.842Z,53.70
2017-06-25T22:45:01.928Z,54.00
2017-06-25T22:47:30.002Z,54.00
2017-06-25T22:49:58.082Z,54.20
2017-06-25T22:52:26.173Z,54.20
2017-06-25T22:54:54.254Z,54.90
2017-06-25T22:57:22.335Z,54.20
2017-06-25T22:59:50.412Z,54.20
2017-06-25T23:02:18.491Z,54.10
2017-06-25T23:04:46.583Z,54.20
2017-06-25T23:07:14.659Z,54.50
2017-06-25T23:09:42.735Z,54.40
2017-06-25T23:12:10.831Z,54.50
2017-06-25T23:14:38.914Z,54.50
2017-06-25T23:17:07.003Z,55.10
2017-06-25T23:19:35.078Z,55.20
2017-06-25T23:22:03.167Z,55.50
2017-06-25T23:24:31.244Z,55.50
2017-06-25T23:26:59.344Z,55.50
2017-06-25T23:29:27.534Z,55.70
2017-06-25T23:31:55.811Z,56.30
2017-06-25T23:34:23.895Z,56.50
2017-06-25T23:36:52.043Z,56.80
2017-06-25T23:39:20.137Z,56.70
2017-06-25T23:41:49.103Z,56.90
2017-06-25T23:44:17.192Z,56.90
2017-06-25T23:46:45.271Z,56.80
2017-06-25T23:49:13.366Z,57.10
2017-06-25T23:51:41.440Z,57.30
2017-06-25T23:54:09.533Z,57.50
2017-06-25T23:56:37.616Z,57.50
2017-06-25T23:59:05.697Z,57.50
